Time;durP1;ratioP1;P1;durP2;ratioP2;P2;SDS_P1;SDS_P2;PMS_P1;PMS_P2;Temp;Humidity;BMP_temperature;BMP_pressure;BME280_temperature;BME280_humidity;BME280_pressure;Samples;Min_cycle;Max_cycle;Signal;HPM_P1;HPM_P2
2023/07/13 00:00:16;;;;;;;10.57;3.38;;;;;;;17.71;100.00;101286.03;4992438;28;20893;-72
2023/07/13 00:02:42;;;;;;;11.02;3.35;;;;;;;17.51;100.00;101282.34;4991699;28;20108;-73
2023/07/13 00:05:08;;;;;;;17.77;3.70;;;;;;;17.51;100.00;101282.34;4986609;28;20042;-71
2023/07/13 00:07:35;;;;;;;9.93;3.72;;;;;;;17.54;100.00;101288.34;4994046;28;20038;-71
2023/07/13 00:10:00;;;;;;;16.35;3.50;;;;;;;17.44;100.00;101286.56;4995732;28;20037;-73
2023/07/13 00:12:31;;;;;;;9.40;3.13;;;;;;;17.37;100.00;101283.53;4991431;28;20062;-72
2023/07/13 00:14:58;;;;;;;11.60;3.17;;;;;;;17.17;100.00;101287.03;4984874;28;20034;-73
2023/07/13 00:17:24;;;;;;;12.05;3.03;;;;;;;17.25;100.00;101293.50;4994498;28;20038;-73
2023/07/13 00:19:50;;;;;;;11.63;3.35;;;;;;;17.31;100.00;101290.28;4989630;28;20050;-72
2023/07/13 00:22:17;;;;;;;6.25;3.17;;;;;;;17.32;100.00;101297.41;4991920;28;20446;-71
2023/07/13 00:24:44;;;;;;;9.38;3.63;;;;;;;17.22;100.00;101295.59;4996030;28;20264;-71
2023/07/13 00:27:10;;;;;;;12.88;3.22;;;;;;;17.26;100.00;101299.75;4999764;28;20101;-73
2023/07/13 00:29:36;;;;;;;12.45;3.20;;;;;;;17.14;100.00;101292.72;5006573;28;20338;-72
2023/07/13 00:32:04;;;;;;;10.95;2.88;;;;;;;17.17;100.00;101296.00;5000941;28;20043;-74
2023/07/13 00:34:30;;;;;;;9.68;3.25;;;;;;;17.26;100.00;101292.50;5003740;28;20470;-72
2023/07/13 00:36:56;;;;;;;8.02;2.80;;;;;;;17.22;100.00;101299.19;5016534;28;20128;-72
2023/07/13 00:39:22;;;;;;;10.02;2.63;;;;;;;17.23;100.00;101305.41;4995211;28;20077;-71
2023/07/13 00:41:48;;;;;;;9.52;2.65;;;;;;;17.19;100.00;101303.97;4996127;28;20038;-72
2023/07/13 00:44:16;;;;;;;17.98;3.35;;;;;;;17.02;100.00;101300.84;4989005;28;20067;-71
2023/07/13 00:46:41;;;;;;;7.90;2.97;;;;;;;17.05;100.00;101302.41;4994043;28;20108;-71
2023/07/13 00:49:10;;;;;;;8.18;2.97;;;;;;;17.13;100.00;101294.56;4998883;28;20027;-72
2023/07/13 00:51:48;;;;;;;12.70;3.35;;;;;;;17.02;100.00;101297.28;5011240;28;20043;-71
2023/07/13 00:54:29;;;;;;;12.85;3.20;;;;;;;17.06;100.00;101304.13;5010064;28;20055;-72
2023/07/13 00:57:06;;;;;;;8.23;2.83;;;;;;;16.95;100.00;101294.22;4975384;28;20113;-72
2023/07/13 00:59:36;;;;;;;14.23;3.47;;;;;;;17.00;100.00;101289.31;4989514;28;20077;-72
2023/07/13 01:02:03;;;;;;;11.77;3.40;;;;;;;16.96;100.00;101295.94;4991401;28;20296;-72
2023/07/13 01:04:29;;;;;;;13.90;3.15;;;;;;;17.03;100.00;101299.84;4999967;28;20141;-73
2023/07/13 01:06:55;;;;;;;10.73;2.97;;;;;;;16.96;100.00;101297.78;4977673;28;20031;-73
2023/07/13 01:09:21;;;;;;;8.30;3.20;;;;;;;17.10;100.00;101302.88;5008888;28;20042;-72
2023/07/13 01:11:47;;;;;;;11.38;3.58;;;;;;;16.94;100.00;101308.69;4980673;28;20035;-72
2023/07/13 01:14:13;;;;;;;11.30;3.33;;;;;;;16.95;100.00;101304.16;4994701;28;20219;-72
2023/07/13 01:16:41;;;;;;;9.80;2.92;;;;;;;16.96;100.00;101303.16;4989575;28;20129;-72
2023/07/13 01:19:35;;;;;;;11.15;3.38;;;;;;;16.96;100.00;101301.31;4975999;28;20035;-72
2023/07/13 01:22:19;;;;;;;15.85;3.45;;;;;;;16.90;100.00;101298.28;5005547;28;20054;-73
2023/07/13 01:24:46;;;;;;;10.65;3.10;;;;;;;16.83;100.00;101304.19;4984495;28;20041;-73
2023/07/13 01:27:16;;;;;;;12.73;3.45;;;;;;;16.85;100.00;101311.28;4986523;28;20585;-71
2023/07/13 01:29:46;;;;;;;10.32;3.10;;;;;;;16.69;100.00;101315.22;4988655;28;20078;-72
2023/07/13 01:32:33;;;;;;;13.07;2.90;;;;;;;16.70;100.00;101308.84;4970287;28;20141;-72
2023/07/13 01:35:00;;;;;;;8.13;3.10;;;;;;;16.71;100.00;101307.88;4984033;28;20045;-73
2023/07/13 01:37:26;;;;;;;8.38;3.20;;;;;;;16.69;100.00;101308.97;4999965;28;20066;-72
2023/07/13 01:39:53;;;;;;;13.18;3.28;;;;;;;16.65;100.00;101311.03;4988154;28;20168;-71
2023/07/13 01:42:18;;;;;;;12.23;3.92;;;;;;;16.61;100.00;101314.09;4987606;28;20145;-71
2023/07/13 01:44:44;;;;;;;11.77;3.92;;;;;;;16.55;100.00;101307.38;4982901;28;20033;-73
2023/07/13 01:47:10;;;;;;;12.57;4.47;;;;;;;16.49;100.00;101303.38;4984871;28;20034;-71
2023/07/13 01:49:37;;;;;;;11.27;3.75;;;;;;;16.36;100.00;101296.38;4977160;28;20039;-73
2023/07/13 01:52:03;;;;;;;11.05;3.80;;;;;;;16.23;100.00;101296.53;5011423;28;20041;-71
2023/07/13 01:54:30;;;;;;;7.22;3.58;;;;;;;16.51;100.00;101292.47;5003915;28;20045;-72
2023/07/13 01:56:55;;;;;;;8.63;3.80;;;;;;;16.54;100.00;101294.91;4995724;28;20175;-72
2023/07/13 01:59:21;;;;;;;12.27;4.18;;;;;;;16.40;100.00;101295.16;4987389;28;20030;-72
2023/07/13 02:01:47;;;;;;;10.95;4.50;;;;;;;16.38;100.00;101298.00;4990920;28;20588;-73
2023/07/13 02:04:13;;;;;;;14.70;4.18;;;;;;;16.39;100.00;101294.31;4989232;28;20301;-71
2023/07/13 02:06:39;;;;;;;11.23;4.28;;;;;;;16.31;100.00;101303.03;4998037;28;20049;-71
2023/07/13 02:09:04;;;;;;;17.05;4.72;;;;;;;16.39;100.00;101307.78;4987081;28;20471;-73
2023/07/13 02:11:32;;;;;;;14.00;5.68;;;;;;;16.30;100.00;101305.81;5002547;28;21090;-72
2023/07/13 02:14:02;;;;;;;13.57;4.95;;;;;;;16.20;100.00;101297.63;5003777;28;20038;-71
2023/07/13 02:16:28;;;;;;;14.02;5.18;;;;;;;16.22;100.00;101301.06;4968238;28;20090;-72
2023/07/13 02:18:55;;;;;;;14.23;5.10;;;;;;;16.13;100.00;101295.56;4991776;28;20039;-72
2023/07/13 02:21:22;;;;;;;16.60;5.35;;;;;;;16.17;100.00;101303.25;5006798;28;20507;-73
2023/07/13 02:23:49;;;;;;;13.60;5.13;;;;;;;16.17;100.00;101308.66;4985776;28;20163;-72
2023/07/13 02:26:16;;;;;;;12.55;5.32;;;;;;;16.13;100.00;101296.41;4987932;28;20034;-71
2023/07/13 02:28:41;;;;;;;17.75;5.35;;;;;;;16.07;100.00;101287.97;4983686;28;20104;-71
2023/07/13 02:31:10;;;;;;;9.70;4.40;;;;;;;16.03;100.00;101306.19;4998023;28;20523;-72
2023/07/13 02:33:36;;;;;;;11.55;4.30;;;;;;;16.00;100.00;101309.97;4985332;28;20038;-72
2023/07/13 02:36:02;;;;;;;10.40;4.88;;;;;;;16.07;100.00;101315.75;4989745;28;20244;-71
2023/07/13 02:38:27;;;;;;;14.77;4.75;;;;;;;16.15;100.00;101313.28;4992872;28;20071;-73
2023/07/13 02:40:53;;;;;;;11.75;4.72;;;;;;;16.12;100.00;101308.16;4999514;28;20912;-73
2023/07/13 02:43:19;;;;;;;12.35;5.38;;;;;;;16.16;100.00;101314.13;4996177;28;20046;-72
2023/07/13 02:45:46;;;;;;;17.02;5.55;;;;;;;16.13;100.00;101312.56;4988121;28;20039;-72
2023/07/13 02:48:14;;;;;;;12.40;5.13;;;;;;;15.87;100.00;101322.69;4987890;28;20043;-72
2023/07/13 02:50:39;;;;;;;12.77;5.68;;;;;;;15.96;100.00;101318.38;5008360;28;20065;-72
2023/07/13 02:53:05;;;;;;;12.98;5.22;;;;;;;15.98;100.00;101316.47;5006195;28;20038;-72
2023/07/13 02:55:31;;;;;;;15.02;5.57;;;;;;;15.84;100.00;101317.53;5010589;28;21232;-72
2023/07/13 02:57:57;;;;;;;19.95;5.93;;;;;;;15.80;100.00;101311.53;4998818;28;20086;-71
2023/07/13 03:00:23;;;;;;;12.77;5.25;;;;;;;15.72;100.00;101323.88;4991107;28;20776;-73
2023/07/13 03:02:48;;;;;;;16.85;5.00;;;;;;;15.92;100.00;101327.69;4986486;28;20035;-71
2023/07/13 03:05:16;;;;;;;14.75;5.03;;;;;;;15.81;100.00;101333.88;4996430;28;20035;-72
2023/07/13 03:07:44;;;;;;;18.92;5.60;;;;;;;15.84;100.00;101335.50;5005062;28;20427;-71
2023/07/13 03:10:10;;;;;;;15.10;5.35;;;;;;;15.93;100.00;101334.78;4995096;28;20038;-71
2023/07/13 03:12:42;;;;;;;11.20;4.32;;;;;;;15.87;100.00;101337.97;4984898;28;20036;-71
2023/07/13 03:15:16;;;;;;;12.32;5.22;;;;;;;15.93;100.00;101332.09;4996773;28;20122;-72
2023/07/13 03:17:43;;;;;;;16.33;5.28;;;;;;;15.91;100.00;101336.72;5004198;28;20067;-73
2023/07/13 03:20:09;;;;;;;16.30;5.30;;;;;;;15.89;100.00;101336.84;5004461;28;20113;-71
2023/07/13 03:22:35;;;;;;;11.65;5.25;;;;;;;15.90;100.00;101338.56;5008694;28;21859;-72
2023/07/13 03:25:01;;;;;;;16.45;5.43;;;;;;;15.62;100.00;101353.25;4986784;28;20109;-72
2023/07/13 03:27:27;;;;;;;13.48;5.22;;;;;;;15.60;100.00;101347.13;4978906;28;21024;-72
2023/07/13 03:29:54;;;;;;;14.73;6.25;;;;;;;15.75;100.00;101354.03;4996634;28;20054;-72
2023/07/13 03:32:19;;;;;;;16.65;6.25;;;;;;;15.74;100.00;101356.88;5005508;28;20046;-73
2023/07/13 03:34:45;;;;;;;16.55;5.78;;;;;;;15.69;100.00;101345.59;4992582;28;20858;-72
2023/07/13 03:37:12;;;;;;;19.05;5.82;;;;;;;15.62;100.00;101352.41;4979868;28;20062;-71
2023/07/13 03:39:38;;;;;;;12.73;5.55;;;;;;;15.74;100.00;101352.34;4992209;28;20042;-73
2023/07/13 03:42:04;;;;;;;13.98;5.97;;;;;;;15.67;100.00;101353.81;4979505;28;20854;-71
2023/07/13 03:44:30;;;;;;;14.52;5.30;;;;;;;15.74;100.00;101357.72;5005284;28;20175;-72
2023/07/13 03:46:56;;;;;;;15.32;6.22;;;;;;;15.73;100.00;101358.69;5001243;28;20038;-73
2023/07/13 03:49:22;;;;;;;17.73;5.85;;;;;;;15.79;100.00;101368.13;4998075;28;20042;-72
2023/07/13 03:51:48;;;;;;;18.05;6.53;;;;;;;15.74;100.00;101368.47;4988955;28;20405;-72
2023/07/13 03:54:14;;;;;;;15.43;6.65;;;;;;;15.80;100.00;101365.31;4985851;28;20162;-72
2023/07/13 03:56:39;;;;;;;17.75;5.50;;;;;;;15.86;100.00;101368.50;4996818;28;20053;-72
2023/07/13 03:59:07;;;;;;;22.15;6.95;;;;;;;16.21;100.00;101358.53;4993967;28;20035;-73
2023/07/13 04:01:32;;;;;;;16.15;6.13;;;;;;;16.27;100.00;101358.06;4985462;28;20096;-73
2023/07/13 04:03:58;;;;;;;14.85;5.90;;;;;;;16.14;100.00;101361.84;5006344;28;20138;-73
2023/07/13 04:06:29;;;;;;;14.52;5.88;;;;;;;16.60;100.00;101360.88;4990023;28;21320;-73
2023/07/13 04:09:00;;;;;;;15.10;5.95;;;;;;;16.69;100.00;101350.22;4983159;28;20072;-73
2023/07/13 04:11:28;;;;;;;18.60;6.22;;;;;;;17.20;100.00;101357.72;5009605;28;20037;-72
2023/07/13 04:13:54;;;;;;;12.88;6.53;;;;;;;17.72;100.00;101360.56;4998722;28;20121;-71
2023/07/13 04:16:20;;;;;;;18.25;6.65;;;;;;;18.35;100.00;101351.47;5006223;28;20150;-71
2023/07/13 04:18:47;;;;;;;15.43;6.32;;;;;;;18.78;100.00;101354.94;4996341;28;20060;-72
2023/07/13 04:21:13;;;;;;;18.88;6.28;;;;;;;19.31;97.76;101360.88;4997487;28;20581;-71
2023/07/13 04:23:39;;;;;;;16.02;6.80;;;;;;;19.78;94.70;101357.47;4996255;28;20027;-72
2023/07/13 04:26:06;;;;;;;11.75;5.78;;;;;;;20.09;88.82;101353.56;4995669;28;20090;-72
2023/07/13 04:28:32;;;;;;;13.90;5.80;;;;;;;20.69;85.21;101353.25;4986315;28;20182;-72
2023/07/13 04:30:58;;;;;;;13.18;5.85;;;;;;;21.01;82.50;101344.63;4996806;28;20115;-74
2023/07/13 04:33:24;;;;;;;15.40;5.72;;;;;;;20.95;80.62;101351.50;4989164;28;20101;-72
2023/07/13 04:35:56;;;;;;;15.27;5.97;;;;;;;21.25;79.58;101346.75;4986621;28;20895;-74
2023/07/13 04:38:24;;;;;;;18.75;6.13;;;;;;;21.44;79.06;101351.22;4994292;28;20033;-72
2023/07/13 04:40:50;;;;;;;16.33;5.85;;;;;;;21.67;76.40;101354.28;4994955;28;20043;-74
2023/07/13 04:43:16;;;;;;;13.27;6.22;;;;;;;22.59;72.77;101348.28;4994139;28;20077;-73
2023/07/13 04:45:42;;;;;;;16.13;5.28;;;;;;;22.99;70.40;101363.94;4984208;28;20918;-72
2023/07/13 04:48:08;;;;;;;19.10;6.78;;;;;;;23.06;69.68;101355.09;4990383;28;20034;-73
2023/07/13 04:50:37;;;;;;;19.60;6.25;;;;;;;23.02;69.14;101356.44;4985718;28;20046;-73
2023/07/13 04:53:03;;;;;;;16.23;6.05;;;;;;;23.44;67.83;101362.63;4992281;28;20034;-73
2023/07/13 04:55:30;;;;;;;14.20;5.88;;;;;;;22.75;68.63;101361.94;4989863;28;20046;-74
2023/07/13 04:57:58;;;;;;;12.32;5.60;;;;;;;21.30;73.04;101371.59;4990739;28;20120;-72
2023/07/13 05:00:24;;;;;;;14.70;6.47;;;;;;;21.72;75.26;101376.38;4993676;28;20042;-73
2023/07/13 05:02:50;;;;;;;15.50;6.45;;;;;;;21.41;75.81;101376.78;4988980;28;20034;-72
2023/07/13 05:05:15;;;;;;;15.43;5.85;;;;;;;21.02;78.33;101378.00;4994569;28;20061;-74
2023/07/13 05:07:41;;;;;;;16.73;6.15;;;;;;;19.70;86.51;101381.69;4997871;28;20582;-71
2023/07/13 05:10:08;;;;;;;16.13;5.88;;;;;;;20.03;86.48;101392.06;4999655;28;20117;-74
2023/07/13 05:12:33;;;;;;;21.30;7.53;;;;;;;19.91;88.15;101393.22;4990888;28;20106;-73
2023/07/13 05:14:59;;;;;;;12.50;5.95;;;;;;;19.92;89.52;101395.78;4998416;28;20430;-72
2023/07/13 05:17:24;;;;;;;13.80;6.15;;;;;;;19.57;92.63;101404.44;4996180;28;20042;-73
2023/07/13 05:19:50;;;;;;;16.38;6.40;;;;;;;19.29;95.79;101398.03;4997357;28;20450;-73
2023/07/13 05:22:16;;;;;;;19.30;5.50;;;;;;;19.32;97.43;101404.97;4992159;28;20038;-73
2023/07/13 05:24:41;;;;;;;17.92;6.85;;;;;;;19.12;100.00;101406.78;5005515;28;20471;-71
2023/07/13 05:27:07;;;;;;;18.67;7.40;;;;;;;19.03;100.00;101403.09;4996964;28;20396;-72
2023/07/13 05:29:33;;;;;;;14.88;6.82;;;;;;;18.85;100.00;101407.44;4995978;28;20057;-73
2023/07/13 05:31:58;;;;;;;19.80;7.72;;;;;;;18.80;100.00;101407.84;4999447;28;20768;-70
2023/07/13 05:34:24;;;;;;;17.65;7.78;;;;;;;18.93;100.00;101406.78;4996813;28;20290;-71
2023/07/13 05:36:49;;;;;;;27.35;8.30;;;;;;;18.53;100.00;101413.81;4996718;28;20505;-72
2023/07/13 05:39:16;;;;;;;19.88;7.28;;;;;;;18.77;100.00;101415.38;4998873;28;20038;-71
2023/07/13 05:41:41;;;;;;;22.50;7.68;;;;;;;18.90;100.00;101413.28;4991284;28;20045;-73
2023/07/13 05:44:07;;;;;;;21.90;8.13;;;;;;;18.93;100.00;101413.03;4993583;28;20570;-72
2023/07/13 05:46:33;;;;;;;22.48;8.65;;;;;;;19.19;100.00;101417.94;4999647;28;20031;-71
2023/07/13 05:48:59;;;;;;;23.83;9.40;;;;;;;18.89;100.00;101419.69;5004820;28;20046;-72
2023/07/13 05:51:25;;;;;;;24.70;8.27;;;;;;;18.96;100.00;101420.00;4994829;28;20030;-72
2023/07/13 05:53:50;;;;;;;22.38;9.55;;;;;;;18.66;100.00;101427.09;4982356;28;20478;-73
2023/07/13 05:56:16;;;;;;;25.08;9.45;;;;;;;18.54;100.00;101428.19;4996195;28;20686;-73
2023/07/13 05:58:42;;;;;;;31.50;12.32;;;;;;;18.66;100.00;101435.19;4991654;28;21426;-72
2023/07/13 06:01:11;;;;;;;33.13;11.27;;;;;;;18.76;100.00;101433.44;4982662;28;20918;-73
2023/07/13 06:03:40;;;;;;;39.50;13.23;;;;;;;18.84;100.00;101438.16;4992838;28;20053;-73
2023/07/13 06:06:07;;;;;;;35.40;12.70;;;;;;;19.14;100.00;101445.38;4990618;28;20030;-71
2023/07/13 06:08:33;;;;;;;33.17;13.05;;;;;;;18.99;100.00;101441.34;4985703;28;20045;-71
2023/07/13 06:11:12;;;;;;;30.55;12.60;;;;;;;19.13;100.00;101446.38;4997168;28;20030;-73
2023/07/13 06:13:38;;;;;;;36.78;13.15;;;;;;;18.96;100.00;101445.16;4993804;28;20503;-71
2023/07/13 06:16:04;;;;;;;29.65;12.70;;;;;;;19.37;100.00;101451.41;4990649;28;20042;-72
2023/07/13 06:18:31;;;;;;;34.03;12.75;;;;;;;19.19;100.00;101447.69;4986381;28;20034;-72
2023/07/13 06:20:57;;;;;;;31.45;12.77;;;;;;;19.51;100.00;101459.13;4992126;28;20038;-71
2023/07/13 06:23:23;;;;;;;26.70;12.25;;;;;;;19.77;100.00;101455.91;4988964;28;20031;-71
2023/07/13 06:25:49;;;;;;;35.75;13.70;;;;;;;19.92;100.00;101459.88;4988719;28;20046;-72
2023/07/13 06:28:14;;;;;;;37.30;13.68;;;;;;;20.40;100.00;101454.41;4990596;28;20042;-71
2023/07/13 06:30:40;;;;;;;33.88;13.35;;;;;;;20.55;98.83;101459.41;4989725;28;20045;-73
2023/07/13 06:33:06;;;;;;;31.55;12.73;;;;;;;20.81;96.77;101456.91;4985097;28;20035;-74
2023/07/13 06:35:32;;;;;;;31.52;12.57;;;;;;;20.64;100.00;101459.38;4978541;28;20058;-73
2023/07/13 06:37:58;;;;;;;32.15;12.73;;;;;;;21.34;95.43;101459.81;4996856;28;20038;-73
2023/07/13 06:40:23;;;;;;;32.63;13.20;;;;;;;21.34;93.15;101464.38;4976502;28;20054;-75
2023/07/13 06:42:49;;;;;;;29.48;12.77;;;;;;;21.54;91.27;101465.13;4987004;28;20038;-73
2023/07/13 06:45:14;;;;;;;27.58;12.95;;;;;;;21.80;91.46;101476.06;4984995;28;20038;-73
2023/07/13 06:47:41;;;;;;;31.08;12.73;;;;;;;22.07;87.30;101475.13;4989284;28;20070;-73
2023/07/13 06:50:07;;;;;;;27.50;13.07;;;;;;;22.26;86.47;101464.09;4997124;28;20511;-73
2023/07/13 06:52:33;;;;;;;27.17;12.70;;;;;;;22.53;87.16;101465.81;4990909;28;20069;-73
2023/07/13 06:54:59;;;;;;;28.23;13.07;;;;;;;22.55;84.63;101458.38;4991731;28;20108;-74
2023/07/13 06:57:24;;;;;;;30.23;13.35;;;;;;;22.55;84.59;101463.81;4992793;28;20042;-75
2023/07/13 06:59:50;;;;;;;34.45;14.57;;;;;;;22.32;84.90;101468.91;4992834;28;20093;-74
2023/07/13 07:02:15;;;;;;;35.17;15.10;;;;;;;22.10;87.25;101472.09;4993573;28;20030;-74
2023/07/13 07:04:41;;;;;;;34.63;14.68;;;;;;;22.36;88.55;101472.16;4989780;28;20045;-73
2023/07/13 07:07:07;;;;;;;42.00;14.95;;;;;;;22.49;84.44;101476.16;5007150;28;20034;-74
2023/07/13 07:09:32;;;;;;;33.70;15.18;;;;;;;22.85;83.59;101480.63;4991692;28;20037;-73
2023/07/13 07:11:58;;;;;;;31.60;14.40;;;;;;;22.46;83.65;101475.63;4988291;28;20045;-73
2023/07/13 07:14:23;;;;;;;32.47;13.43;;;;;;;22.15;86.76;101483.38;4989187;28;20038;-74
2023/07/13 07:16:49;;;;;;;34.30;15.68;;;;;;;21.39;93.38;101481.91;4987867;28;20070;-73
2023/07/13 07:19:16;;;;;;;32.25;15.55;;;;;;;21.33;92.28;101478.94;4986710;28;20035;-72
2023/07/13 07:21:42;;;;;;;34.97;14.43;;;;;;;21.59;93.95;101482.66;4995065;28;20047;-73
2023/07/13 07:24:07;;;;;;;31.08;14.93;;;;;;;21.35;96.81;101495.94;4975152;28;20031;-74
2023/07/13 07:26:33;;;;;;;29.75;13.80;;;;;;;21.60;93.95;101487.06;4997058;28;20397;-73
2023/07/13 07:28:59;;;;;;;34.60;14.95;;;;;;;21.90;93.30;101485.00;4985932;28;20050;-73
2023/07/13 07:31:25;;;;;;;30.50;15.65;;;;;;;22.07;91.09;101488.69;4995783;28;20046;-73
2023/07/13 07:33:50;;;;;;;35.85;16.02;;;;;;;21.87;91.61;101491.56;4984918;28;20030;-74
2023/07/13 07:36:16;;;;;;;31.80;16.38;;;;;;;21.76;92.03;101486.38;4980636;28;20101;-72
2023/07/13 07:38:43;;;;;;;37.88;16.45;;;;;;;21.87;91.09;101486.13;4994358;28;20033;-72
2023/07/13 07:41:09;;;;;;;33.08;16.40;;;;;;;21.65;91.47;101483.88;4992267;28;20098;-72
2023/07/13 07:43:35;;;;;;;39.20;16.35;;;;;;;21.69;93.32;101493.44;4985839;28;20979;-73
2023/07/13 07:46:01;;;;;;;33.03;16.05;;;;;;;21.14;97.62;101498.88;5009084;28;20038;-72
2023/07/13 07:48:26;;;;;;;35.67;18.20;;;;;;;21.42;94.27;101483.44;4983961;28;20154;-73
2023/07/13 07:50:52;;;;;;;40.15;17.02;;;;;;;21.71;92.15;101489.53;4981104;28;20057;-72
2023/07/13 07:53:17;;;;;;;30.38;16.35;;;;;;;21.65;92.23;101486.59;4988081;28;20046;-73
2023/07/13 07:55:43;;;;;;;41.22;16.48;;;;;;;21.26;95.12;101484.09;4994269;28;20953;-72
2023/07/13 07:58:10;;;;;;;33.80;15.57;;;;;;;21.42;96.50;101494.31;4989321;28;20030;-72
2023/07/13 08:00:36;;;;;;;35.20;15.68;;;;;;;21.18;97.30;101490.25;4993113;28;20155;-72
2023/07/13 08:03:02;;;;;;;34.17;14.73;;;;;;;21.49;96.12;101487.28;4984232;28;20533;-74
2023/07/13 08:05:28;;;;;;;46.22;19.90;;;;;;;21.54;95.43;101481.41;4993385;28;20045;-71
2023/07/13 08:07:54;;;;;;;33.58;16.05;;;;;;;21.62;93.56;101481.47;4988071;28;20027;-72
2023/07/13 08:10:20;;;;;;;34.55;16.35;;;;;;;21.77;93.18;101487.22;4981354;28;20031;-75
2023/07/13 08:12:46;;;;;;;32.83;15.85;;;;;;;22.20;91.90;101484.59;4988939;28;20039;-73
2023/07/13 08:15:14;;;;;;;34.80;15.55;;;;;;;21.86;90.08;101487.16;4994576;28;20044;-72
2023/07/13 08:17:40;;;;;;;31.05;14.80;;;;;;;22.14;89.14;101490.69;4986861;28;20140;-72
2023/07/13 08:20:06;;;;;;;34.00;14.15;;;;;;;22.12;89.30;101486.41;5000657;28;20914;-71
2023/07/13 08:22:32;;;;;;;33.17;15.02;;;;;;;22.01;87.85;101486.59;4982687;28;20031;-73
2023/07/13 08:24:59;;;;;;;33.17;14.98;;;;;;;21.72;90.36;101487.69;4988980;28;20903;-71
2023/07/13 08:27:27;;;;;;;31.92;15.40;;;;;;;21.52;93.54;101495.09;4982086;28;20030;-72
2023/07/13 08:29:53;;;;;;;37.70;15.43;;;;;;;21.55;92.29;101491.25;4986827;28;20081;-72
2023/07/13 08:32:20;;;;;;;32.95;15.18;;;;;;;21.67;92.34;101490.84;4987961;28;20041;-72
2023/07/13 08:34:46;;;;;;;33.75;14.63;;;;;;;21.82;89.61;101498.47;4990393;28;20034;-72
2023/07/13 08:37:12;;;;;;;27.52;14.25;;;;;;;21.82;90.43;101490.31;4992615;28;20969;-71
2023/07/13 08:39:38;;;;;;;31.70;14.75;;;;;;;23.01;88.82;101488.91;4986328;28;20030;-72
2023/07/13 08:42:30;;;;;;;25.48;13.20;;;;;;;23.81;81.10;101475.75;4986317;28;20170;-71
2023/07/13 08:45:19;;;;;;;31.87;14.07;;;;;;;24.05;77.84;101474.94;4966727;28;20643;-71
2023/07/13 08:47:52;;;;;;;24.77;13.23;;;;;;;24.08;78.86;101476.44;4985158;28;20085;-72
2023/07/13 08:50:24;;;;;;;28.52;13.15;;;;;;;24.41;75.96;101480.06;4993296;28;20146;-73
2023/07/13 08:52:50;;;;;;;25.77;13.32;;;;;;;23.91;74.20;101475.59;4993694;28;20054;-73
2023/07/13 08:55:24;;;;;;;21.67;12.18;;;;;;;23.86;74.95;101470.66;4986286;28;20030;-74
2023/07/13 08:58:11;;;;;;;19.63;10.63;;;;;;;23.96;74.05;101473.22;4977917;28;20031;-71
2023/07/13 09:00:48;;;;;;;29.50;12.60;;;;;;;23.62;74.89;101473.28;4977397;28;20047;-72
2023/07/13 09:03:24;;;;;;;21.85;12.23;;;;;;;24.59;73.01;101463.47;4980870;28;20859;-72
2023/07/13 09:05:58;;;;;;;22.65;11.38;;;;;;;24.99;72.41;101465.22;4990195;28;20031;-72
2023/07/13 09:08:32;;;;;;;24.60;11.90;;;;;;;24.64;73.96;101466.53;4981773;28;20184;-73
2023/07/13 09:11:03;;;;;;;27.55;13.15;;;;;;;25.35;68.92;101459.28;4983731;28;20033;-73
2023/07/13 09:13:42;;;;;;;25.67;12.27;;;;;;;25.36;65.45;101463.75;4977862;28;20035;-73
2023/07/13 09:16:11;;;;;;;22.85;11.57;;;;;;;24.80;67.92;101461.06;4986362;28;20042;-72
2023/07/13 09:18:48;;;;;;;19.52;11.10;;;;;;;25.15;68.71;101464.34;4988119;28;20064;-72
2023/07/13 09:21:16;;;;;;;21.73;10.90;;;;;;;24.63;69.18;101462.09;4989250;28;20042;-74
2023/07/13 09:23:42;;;;;;;21.10;10.93;;;;;;;24.27;69.01;101462.47;5001961;28;20224;-71
2023/07/13 09:26:16;;;;;;;20.65;10.82;;;;;;;23.91;69.62;101470.16;4988659;28;20572;-72
2023/07/13 09:28:44;;;;;;;25.10;10.68;;;;;;;24.39;71.00;101474.75;4983042;28;20045;-71
2023/07/13 09:31:17;;;;;;;18.63;8.68;;;;;;;25.10;67.78;101469.47;4998709;28;20958;-71
2023/07/13 09:33:42;;;;;;;21.10;10.32;;;;;;;24.35;65.35;101476.09;4979383;28;20034;-73
2023/07/13 09:36:30;;;;;;;18.27;9.90;;;;;;;24.32;66.46;101479.16;4984843;28;20047;-73
2023/07/13 09:39:03;;;;;;;21.58;9.38;;;;;;;24.69;65.15;101472.31;4995325;28;20149;-72
2023/07/13 09:41:52;;;;;;;17.35;9.50;;;;;;;24.47;65.09;101469.28;4984520;28;20083;-72
2023/07/13 09:44:30;;;;;;;18.63;8.85;;;;;;;24.39;61.58;101473.91;4985053;28;20113;-72
2023/07/13 09:46:57;;;;;;;18.02;9.23;;;;;;;24.97;62.44;101461.84;4986315;28;20049;-73
2023/07/13 09:49:27;;;;;;;17.92;8.77;;;;;;;24.43;61.93;101475.25;4988711;28;21301;-73
2023/07/13 09:52:04;;;;;;;17.30;9.88;;;;;;;24.47;62.32;101482.94;4987280;28;20034;-73
2023/07/13 09:54:34;;;;;;;14.63;8.82;;;;;;;24.67;62.47;101477.94;4977537;28;20038;-73
2023/07/13 09:57:01;;;;;;;18.27;9.75;;;;;;;25.10;62.71;101478.50;4992554;28;20045;-73
2023/07/13 09:59:32;;;;;;;17.50;8.32;;;;;;;25.09;60.80;101463.16;4981425;28;20080;-73
2023/07/13 10:01:58;;;;;;;15.77;8.55;;;;;;;24.79;61.54;101476.53;5002378;28;20241;-73
2023/07/13 10:04:34;;;;;;;26.92;10.93;;;;;;;23.50;69.59;101525.34;4987825;28;20085;-73
2023/07/13 10:07:13;;;;;;;30.55;15.27;;;;;;;21.01;100.00;101536.31;4987887;28;20378;-72
2023/07/13 10:09:39;;;;;;;25.13;15.68;;;;;;;20.68;100.00;101542.13;4981109;28;20039;-72
2023/07/13 10:12:15;;;;;;;24.60;16.30;;;;;;;20.95;100.00;101544.03;4982974;28;20857;-71
2023/07/13 10:14:43;;;;;;;22.83;13.20;;;;;;;21.11;100.00;101540.69;4992546;28;20114;-70
2023/07/13 10:17:13;;;;;;;24.73;14.60;;;;;;;21.26;100.00;101530.22;4983847;28;20093;-72
2023/07/13 10:19:43;;;;;;;24.00;14.70;;;;;;;21.47;100.00;101524.56;4985019;28;20030;-72
2023/07/13 10:22:35;;;;;;;19.88;12.95;;;;;;;22.02;100.00;101529.91;4981394;28;20078;-71
2023/07/13 10:25:01;;;;;;;16.13;10.02;;;;;;;22.55;100.00;101530.91;4966976;28;20141;-72
2023/07/13 10:27:35;;;;;;;14.05;9.23;;;;;;;22.84;100.00;101522.41;4979139;28;20111;-72
2023/07/13 10:30:28;;;;;;;17.35;10.70;;;;;;;23.16;100.00;101535.41;4982575;28;20150;-73
2023/07/13 10:32:54;;;;;;;14.85;9.43;;;;;;;23.32;97.72;101535.47;4991688;28;21424;-72
2023/07/13 10:35:22;;;;;;;17.23;11.55;;;;;;;23.00;94.90;101537.03;4987090;28;20035;-72
2023/07/13 10:37:57;;;;;;;15.20;12.73;;;;;;;23.31;100.00;101524.75;4986792;28;20117;-72
2023/07/13 10:40:38;;;;;;;20.02;12.25;;;;;;;23.66;100.00;101519.13;4993339;28;20543;-72
2023/07/13 10:43:26;;;;;;;20.48;14.32;;;;;;;24.07;100.00;101519.19;4974388;28;20031;-72
2023/07/13 10:45:54;;;;;;;24.67;14.50;;;;;;;23.76;98.59;101516.25;4990912;28;20038;-72
2023/07/13 10:48:22;;;;;;;19.25;14.13;;;;;;;23.78;99.41;101515.06;4991676;28;20285;-72
2023/07/13 10:50:52;;;;;;;26.50;16.55;;;;;;;23.48;100.00;101523.78;4989404;28;20046;-73
2023/07/13 10:53:28;;;;;;;28.05;16.02;;;;;;;23.86;96.33;101533.31;4988989;28;20042;-73
2023/07/13 10:55:59;;;;;;;22.33;14.23;;;;;;;24.16;90.40;101534.53;4987935;28;20035;-73
2023/07/13 10:58:37;;;;;;;20.13;14.40;;;;;;;24.72;92.20;101532.84;4989196;28;20157;-72
2023/07/13 11:01:05;;;;;;;23.23;11.40;;;;;;;24.13;85.69;101531.28;4991152;28;20101;-73
2023/07/13 11:03:33;;;;;;;17.10;10.65;;;;;;;24.05;82.85;101534.88;4991696;28;20030;-73
2023/07/13 11:06:08;;;;;;;20.50;11.00;;;;;;;23.63;82.70;101543.94;5011116;28;20037;-73
2023/07/13 11:08:56;;;;;;;16.63;11.30;;;;;;;23.50;82.60;101544.41;4995765;28;20061;-73
2023/07/13 11:11:25;;;;;;;18.73;12.75;;;;;;;23.48;87.41;101538.25;4993548;28;20141;-72
2023/07/13 11:13:50;;;;;;;18.90;11.88;;;;;;;22.99;88.71;101548.94;4993357;28;20043;-72